createdAt,value
2023-04-27T00:02:11.680Z,1.65
2023-04-27T00:04:39.199Z,1.83
2023-04-27T00:07:06.884Z,1.95
2023-04-27T00:09:34.436Z,1.92
2023-04-27T00:12:01.889Z,1.65
2023-04-27T00:14:29.215Z,1.77
2023-04-27T00:16:56.866Z,1.70
2023-04-27T00:19:23.876Z,2.20
2023-04-27T00:21:51.447Z,1.90
2023-04-27T00:24:18.387Z,2.45
2023-04-27T00:26:46.075Z,2.08
2023-04-27T00:29:13.779Z,1.60
2023-04-27T00:31:41.261Z,1.77
2023-04-27T00:34:08.944Z,1.90
2023-04-27T00:36:36.214Z,1.88
2023-04-27T00:39:04.458Z,1.48
2023-04-27T00:41:32.757Z,1.60
2023-04-27T00:44:00.188Z,1.50
2023-04-27T00:46:28.204Z,1.40
2023-04-27T00:48:56.567Z,1.40
2023-04-27T00:51:28.333Z,1.45
2023-04-27T00:56:25.169Z,1.98
2023-04-27T00:58:52.197Z,1.70
2023-04-27T01:01:20.711Z,1.45
2023-04-27T01:03:48.884Z,1.80
2023-04-27T01:06:16.100Z,1.67
2023-04-27T01:08:44.677Z,1.85
2023-04-27T01:11:11.647Z,1.83
2023-04-27T01:13:39.761Z,1.77
2023-04-27T01:16:06.846Z,1.70
2023-04-27T01:18:35.022Z,1.73
2023-04-27T01:21:02.035Z,1.70
2023-04-27T01:23:29.415Z,1.73
2023-04-27T01:25:56.778Z,1.65
2023-04-27T01:28:23.817Z,1.80
2023-04-27T01:30:51.334Z,2.28
2023-04-27T01:33:18.416Z,1.88
2023-04-27T01:35:48.827Z,1.65
2023-04-27T01:38:16.451Z,1.52
2023-04-27T01:40:44.484Z,1.52
2023-04-27T01:43:11.450Z,1.80
2023-04-27T01:45:38.601Z,1.63
2023-04-27T01:48:06.302Z,2.13
2023-04-27T01:50:33.356Z,1.70
2023-04-27T01:53:01.057Z,1.83
2023-04-27T01:55:29.465Z,1.42
2023-04-27T01:57:56.454Z,2.00
2023-04-27T02:00:23.416Z,1.48
2023-04-27T02:02:53.660Z,1.90
2023-04-27T02:05:20.839Z,1.85
2023-04-27T02:07:49.646Z,1.92
2023-04-27T02:10:16.636Z,1.67
2023-04-27T02:12:44.070Z,1.88
2023-04-27T02:15:11.014Z,1.83
2023-04-27T02:17:39.666Z,1.95
2023-04-27T02:20:07.795Z,2.08
2023-04-27T02:22:35.222Z,1.77
2023-04-27T02:25:02.952Z,2.00
2023-04-27T02:27:29.920Z,1.73
2023-04-27T02:29:58.717Z,1.77
2023-04-27T02:32:27.324Z,1.90
2023-04-27T02:34:55.527Z,2.10
2023-04-27T02:37:22.628Z,2.45
2023-04-27T02:39:49.767Z,1.98
2023-04-27T02:42:16.974Z,1.90
2023-04-27T02:44:44.290Z,1.92
2023-04-27T02:47:13.084Z,2.03
2023-04-27T02:49:40.778Z,1.38
2023-04-27T02:52:08.208Z,1.50
2023-04-27T02:54:35.462Z,2.20
2023-04-27T02:57:03.168Z,2.13
2023-04-27T02:59:30.900Z,2.38
2023-04-27T03:01:57.853Z,2.25
2023-04-27T03:04:24.948Z,2.85
2023-04-27T03:06:52.221Z,2.35
2023-04-27T03:09:19.499Z,2.50
2023-04-27T03:11:46.524Z,2.30
2023-04-27T03:14:13.898Z,2.17
2023-04-27T03:16:41.013Z,2.20
2023-04-27T03:19:08.630Z,2.70
2023-04-27T03:21:36.052Z,2.22
2023-04-27T03:24:03.774Z,3.55
2023-04-27T03:26:31.629Z,2.33
2023-04-27T03:28:58.596Z,2.33
2023-04-27T03:31:29.300Z,2.30
2023-04-27T03:33:57.086Z,2.20
2023-04-27T03:36:24.449Z,2.35
2023-04-27T03:38:51.535Z,2.80
2023-04-27T03:41:18.859Z,2.30
2023-04-27T03:43:45.938Z,3.08
2023-04-27T03:46:13.022Z,3.20
2023-04-27T03:48:41.124Z,2.55
2023-04-27T03:51:08.916Z,1.98
2023-04-27T03:53:36.722Z,2.03
2023-04-27T03:56:04.315Z,2.63
2023-04-27T03:58:31.627Z,2.45
2023-04-27T04:01:21.982Z,2.70
2023-04-27T04:03:50.704Z,2.28
2023-04-27T04:06:17.825Z,2.83
2023-04-27T04:08:45.995Z,3.00
2023-04-27T04:11:13.294Z,2.50
2023-04-27T04:13:41.300Z,2.15
2023-04-27T04:16:09.926Z,2.75
2023-04-27T04:18:37.319Z,3.10
2023-04-27T04:21:06.001Z,2.78
2023-04-27T04:23:33.203Z,2.30
2023-04-27T04:26:02.079Z,2.10
2023-04-27T04:28:33.054Z,2.50
2023-04-27T04:31:02.054Z,2.47
2023-04-27T04:33:29.456Z,2.22
2023-04-27T04:35:56.435Z,2.55
2023-04-27T04:38:24.099Z,2.53
2023-04-27T04:40:52.913Z,2.53
2023-04-27T04:43:19.989Z,2.50
2023-04-27T04:45:48.130Z,3.15
2023-04-27T04:48:16.713Z,3.38
2023-04-27T04:50:45.822Z,4.30
2023-04-27T04:53:13.830Z,6.15
2023-04-27T04:55:41.860Z,6.00
2023-04-27T04:58:09.741Z,4.03
2023-04-27T05:00:36.887Z,3.17
2023-04-27T05:03:04.047Z,4.07
2023-04-27T05:05:31.523Z,2.70
2023-04-27T05:07:59.022Z,3.38
2023-04-27T05:10:26.469Z,3.42
2023-04-27T05:12:53.463Z,3.22
2023-04-27T05:15:20.987Z,3.28
2023-04-27T05:17:48.329Z,2.83
2023-04-27T05:20:16.206Z,2.80
2023-04-27T05:22:43.778Z,3.53
2023-04-27T05:25:11.349Z,2.92
2023-04-27T05:27:38.622Z,3.25
2023-04-27T05:30:06.505Z,4.07
2023-04-27T05:32:36.999Z,3.00
2023-04-27T05:35:05.546Z,3.58
2023-04-27T05:37:32.913Z,3.78
2023-04-27T05:40:00.408Z,4.00
2023-04-27T05:42:27.936Z,3.17
2023-04-27T05:44:55.289Z,3.50
2023-04-27T05:47:22.712Z,3.08
2023-04-27T05:49:53.183Z,4.43
2023-04-27T05:52:22.232Z,3.22
2023-04-27T05:54:50.081Z,3.42
2023-04-27T05:57:17.337Z,3.10
2023-04-27T05:59:44.307Z,3.22
2023-04-27T06:02:11.695Z,3.47
2023-04-27T06:04:39.149Z,3.00
2023-04-27T06:07:10.476Z,3.35
2023-04-27T06:09:38.027Z,3.72
2023-04-27T06:12:06.911Z,3.92
2023-04-27T06:14:36.464Z,3.03
2023-04-27T06:17:04.479Z,3.22
2023-04-27T06:19:31.748Z,3.70
2023-04-27T06:21:59.127Z,3.15
2023-04-27T06:24:26.546Z,2.88
2023-04-27T06:26:54.544Z,2.70
2023-04-27T06:29:21.612Z,3.85
2023-04-27T06:31:49.481Z,3.17
2023-04-27T06:34:17.042Z,3.58
2023-04-27T06:36:44.387Z,2.67
2023-04-27T06:39:11.840Z,3.35
2023-04-27T06:41:39.322Z,3.13
2023-04-27T06:44:16.727Z,2.78
2023-04-27T06:46:44.526Z,3.00
2023-04-27T06:49:12.014Z,3.28
2023-04-27T06:51:39.515Z,2.65
2023-04-27T06:54:07.617Z,2.80
2023-04-27T06:56:34.938Z,2.70
2023-04-27T06:59:02.343Z,2.10
2023-04-27T07:01:29.843Z,2.65
2023-04-27T07:03:57.725Z,2.38
2023-04-27T07:06:26.036Z,2.78
2023-04-27T07:08:53.487Z,2.78
2023-04-27T07:11:20.932Z,2.33
2023-04-27T07:13:48.290Z,2.50
2023-04-27T07:16:16.797Z,2.50
2023-04-27T07:18:44.644Z,2.38
2023-04-27T07:21:12.029Z,2.38
2023-04-27T07:23:42.909Z,2.30
2023-04-27T07:26:10.419Z,2.85
2023-04-27T07:28:39.132Z,2.60
2023-04-27T07:31:06.904Z,2.20
2023-04-27T07:33:35.308Z,2.58
2023-04-27T07:36:03.027Z,2.08
2023-04-27T07:38:31.276Z,1.90
2023-04-27T07:41:03.214Z,2.50
2023-04-27T07:43:35.240Z,2.30
2023-04-27T07:46:03.660Z,2.55
2023-04-27T07:48:30.815Z,2.22
2023-04-27T07:50:58.197Z,2.30
2023-04-27T07:53:25.932Z,2.88
2023-04-27T07:55:53.344Z,2.40
2023-04-27T07:58:20.877Z,2.00
2023-04-27T08:00:48.301Z,2.38
2023-04-27T08:03:15.937Z,2.22
2023-04-27T08:05:43.279Z,1.73
2023-04-27T08:08:11.352Z,2.25
2023-04-27T08:10:38.614Z,1.83
2023-04-27T08:13:10.430Z,2.22
2023-04-27T08:15:38.588Z,2.05
2023-04-27T08:18:05.644Z,2.25
2023-04-27T08:20:32.696Z,1.92
2023-04-27T08:22:59.862Z,2.10
2023-04-27T08:25:27.950Z,2.60
2023-04-27T08:27:55.626Z,1.77
2023-04-27T08:30:23.025Z,2.20
2023-04-27T08:32:50.132Z,2.17
2023-04-27T08:35:20.488Z,2.53
2023-04-27T08:37:49.882Z,2.20
2023-04-27T08:40:17.344Z,2.10
2023-04-27T08:42:56.273Z,2.53
2023-04-27T08:45:28.792Z,3.28
2023-04-27T08:47:57.189Z,2.28
2023-04-27T08:50:25.033Z,2.30
2023-04-27T08:52:55.604Z,2.22
2023-04-27T08:55:23.644Z,2.08
2023-04-27T08:57:56.150Z,2.35
2023-04-27T09:00:26.030Z,2.30
2023-04-27T09:02:54.702Z,2.08
2023-04-27T09:05:23.635Z,2.00
2023-04-27T09:08:16.870Z,2.45
2023-04-27T09:10:51.751Z,2.13
2023-04-27T09:13:22.481Z,1.58
2023-04-27T09:15:52.758Z,1.83
2023-04-27T09:18:22.605Z,1.80
2023-04-27T09:20:52.102Z,1.52
2023-04-27T09:23:31.843Z,1.45
2023-04-27T09:26:05.686Z,1.02
2023-04-27T09:28:37.932Z,1.40
2023-04-27T09:31:09.487Z,1.25
2023-04-27T09:33:39.711Z,1.70
2023-04-27T09:36:07.743Z,1.90
2023-04-27T09:38:37.773Z,1.75
2023-04-27T09:41:07.102Z,2.10
2023-04-27T09:43:34.290Z,2.05
2023-04-27T09:46:04.355Z,2.97
2023-04-27T09:48:31.680Z,2.22
2023-04-27T09:51:26.357Z,2.47
2023-04-27T09:53:56.861Z,2.50
2023-04-27T09:57:03.558Z,2.50
2023-04-27T09:59:53.841Z,2.17
2023-04-27T10:02:25.681Z,2.30
2023-04-27T10:05:17.515Z,2.40
2023-04-27T10:07:46.280Z,2.40
2023-04-27T10:10:20.900Z,2.70
2023-04-27T10:13:03.724Z,2.45
2023-04-27T10:15:32.051Z,2.13
2023-04-27T10:18:05.849Z,2.38
2023-04-27T10:20:37.060Z,2.13
2023-04-27T10:23:04.958Z,1.80
2023-04-27T10:25:42.700Z,2.40
2023-04-27T10:28:17.714Z,2.20
2023-04-27T10:30:48.924Z,2.15
2023-04-27T10:33:19.935Z,2.15
2023-04-27T10:36:00.412Z,2.65
2023-04-27T10:38:30.383Z,2.38
2023-04-27T10:41:05.089Z,2.10
2023-04-27T10:43:35.643Z,2.33
2023-04-27T10:46:14.892Z,2.42
2023-04-27T10:48:43.983Z,2.38
2023-04-27T10:51:16.622Z,2.67
2023-04-27T10:53:43.930Z,2.40
2023-04-27T10:56:11.632Z,2.55
2023-04-27T11:01:09.926Z,2.05
2023-04-27T11:03:37.564Z,2.25
2023-04-27T11:06:06.287Z,2.35
2023-04-27T11:08:36.942Z,2.33
2023-04-27T11:11:06.277Z,2.95
2023-04-27T11:13:34.175Z,2.50
2023-04-27T11:16:02.138Z,2.38
2023-04-27T11:18:35.877Z,1.80
2023-04-27T11:21:10.973Z,2.58
2023-04-27T11:23:39.689Z,2.28
2023-04-27T11:26:17.427Z,2.40
2023-04-27T11:28:57.085Z,2.55
2023-04-27T11:31:24.759Z,2.00
2023-04-27T11:33:53.230Z,2.30
2023-04-27T11:36:23.240Z,2.95
2023-04-27T11:38:50.897Z,2.40
2023-04-27T11:41:18.522Z,2.55
2023-04-27T11:43:49.821Z,2.40
2023-04-27T11:46:21.586Z,2.40
2023-04-27T11:48:49.582Z,2.35
2023-04-27T11:51:16.639Z,2.33
2023-04-27T11:53:48.353Z,2.50
2023-04-27T11:56:15.775Z,2.83
2023-04-27T11:58:46.406Z,2.40
2023-04-27T12:01:13.659Z,2.53
2023-04-27T12:03:41.200Z,2.20
2023-04-27T12:06:27.510Z,2.33
2023-04-27T12:08:57.157Z,1.98
2023-04-27T12:11:28.010Z,2.17
2023-04-27T12:13:56.806Z,2.60
2023-04-27T12:16:23.947Z,2.50
2023-04-27T12:18:51.935Z,2.13
2023-04-27T12:21:19.547Z,2.17
2023-04-27T12:23:46.615Z,3.13
2023-04-27T12:26:15.382Z,3.13
2023-04-27T12:28:43.812Z,3.35
2023-04-27T12:31:16.601Z,2.67
2023-04-27T12:33:43.807Z,3.50
2023-04-27T12:36:11.316Z,2.85
2023-04-27T12:38:38.350Z,2.20
2023-04-27T12:41:05.918Z,2.72
2023-04-27T12:43:35.328Z,2.85
2023-04-27T12:46:03.382Z,2.55
2023-04-27T12:48:30.983Z,2.58
2023-04-27T12:50:58.671Z,2.88
2023-04-27T12:53:25.757Z,2.40
2023-04-27T12:55:53.675Z,2.65
2023-04-27T12:58:21.671Z,2.80
2023-04-27T13:00:48.694Z,2.92
2023-04-27T13:03:15.845Z,2.58
2023-04-27T13:05:44.700Z,2.80
2023-04-27T13:08:12.311Z,2.88
2023-04-27T13:10:40.552Z,2.63
2023-04-27T13:13:07.887Z,3.05
2023-04-27T13:15:36.488Z,2.75
2023-04-27T13:18:06.323Z,2.55
2023-04-27T13:20:33.918Z,2.80
2023-04-27T13:23:01.007Z,2.85
2023-04-27T13:25:29.295Z,2.40
2023-04-27T13:27:58.248Z,2.47
2023-04-27T13:30:25.511Z,2.65
2023-04-27T13:32:53.383Z,2.42
2023-04-27T13:35:21.271Z,2.95
2023-04-27T13:37:48.794Z,2.42
2023-04-27T13:40:15.943Z,3.03
2023-04-27T13:42:43.118Z,2.47
2023-04-27T13:45:11.203Z,2.50
2023-04-27T13:47:42.192Z,2.47
2023-04-27T13:50:13.463Z,2.28
2023-04-27T13:52:41.313Z,2.30
2023-04-27T13:55:10.932Z,2.70
2023-04-27T13:57:38.474Z,2.00
2023-04-27T14:00:11.675Z,2.50
2023-04-27T14:02:39.530Z,2.90
2023-04-27T14:05:07.327Z,3.17
2023-04-27T14:07:35.782Z,2.47
2023-04-27T14:10:06.980Z,3.15
2023-04-27T14:12:34.188Z,2.90
2023-04-27T14:15:01.437Z,3.67
2023-04-27T14:17:28.517Z,3.22
2023-04-27T14:19:56.045Z,3.13
2023-04-27T14:22:23.441Z,3.40
2023-04-27T14:24:52.037Z,3.20
2023-04-27T14:27:19.099Z,3.45
2023-04-27T14:29:46.095Z,3.05
2023-04-27T14:32:13.463Z,2.83
2023-04-27T14:34:41.110Z,3.42
2023-04-27T14:37:08.253Z,3.22
2023-04-27T14:39:35.844Z,3.53
2023-04-27T14:42:09.920Z,3.13
2023-04-27T14:44:37.064Z,3.28
2023-04-27T14:47:05.129Z,3.60
2023-04-27T14:49:32.238Z,3.38
2023-04-27T14:52:03.569Z,3.80
2023-04-27T14:54:31.131Z,3.53
2023-04-27T14:56:59.092Z,2.55
2023-04-27T14:59:26.851Z,2.80
2023-04-27T15:01:54.357Z,3.40
2023-04-27T15:04:21.859Z,3.33
2023-04-27T15:06:49.283Z,3.25
2023-04-27T15:09:16.780Z,3.30
2023-04-27T15:11:43.795Z,2.83
2023-04-27T15:14:12.078Z,2.95
2023-04-27T15:16:39.788Z,3.60
2023-04-27T15:19:07.495Z,3.78
2023-04-27T15:21:34.472Z,3.38
2023-04-27T15:24:01.791Z,2.78
2023-04-27T15:26:28.961Z,3.45
2023-04-27T15:28:58.375Z,3.10
2023-04-27T15:31:26.141Z,3.45
2023-04-27T15:33:54.688Z,3.38
2023-04-27T15:36:23.132Z,2.63
2023-04-27T15:38:52.097Z,3.13
2023-04-27T15:41:19.495Z,3.67
2023-04-27T15:43:47.499Z,2.80
2023-04-27T15:46:15.667Z,3.28
2023-04-27T15:48:42.669Z,3.28
2023-04-27T15:51:10.618Z,3.10
2023-04-27T15:53:37.912Z,2.78
2023-04-27T15:56:05.280Z,3.42
2023-04-27T15:58:32.682Z,3.47
2023-04-27T16:01:00.139Z,3.10
2023-04-27T16:03:27.678Z,2.75
2023-04-27T16:05:55.035Z,2.97
2023-04-27T16:08:22.520Z,2.65
2023-04-27T16:10:50.371Z,3.50
2023-04-27T16:13:17.284Z,3.30
2023-04-27T16:15:44.775Z,3.33
2023-04-27T16:18:11.805Z,3.25
2023-04-27T16:20:38.894Z,2.83
2023-04-27T16:23:05.918Z,2.97
2023-04-27T16:25:32.872Z,2.90
2023-04-27T16:28:00.041Z,2.97
2023-04-27T16:30:27.430Z,3.08
2023-04-27T16:32:55.564Z,2.67
2023-04-27T16:35:23.249Z,2.88
2023-04-27T16:37:50.911Z,2.65
2023-04-27T16:40:18.498Z,2.78
2023-04-27T16:42:46.535Z,3.28
2023-04-27T16:45:13.678Z,2.35
2023-04-27T16:47:45.457Z,3.28
2023-04-27T16:50:13.192Z,2.95
2023-04-27T16:52:40.765Z,3.80
2023-04-27T16:55:09.034Z,2.50
2023-04-27T16:57:36.983Z,2.80
2023-04-27T17:00:09.973Z,2.97
2023-04-27T17:02:43.134Z,2.78
2023-04-27T17:05:12.064Z,2.58
2023-04-27T17:07:39.494Z,2.67
2023-04-27T17:10:12.728Z,2.70
2023-04-27T17:12:40.199Z,2.95
2023-04-27T17:15:15.002Z,2.47
2023-04-27T17:17:42.132Z,3.00
2023-04-27T17:20:10.384Z,2.53
2023-04-27T17:22:37.896Z,2.45
2023-04-27T17:25:05.668Z,2.20
2023-04-27T17:27:33.192Z,2.58
2023-04-27T17:30:01.409Z,2.20
2023-04-27T17:32:28.984Z,2.60
2023-04-27T17:34:57.628Z,2.40
2023-04-27T17:37:24.746Z,2.60
2023-04-27T17:39:53.245Z,2.05
2023-04-27T17:42:20.530Z,2.15
2023-04-27T17:44:47.919Z,2.45
2023-04-27T17:47:15.368Z,2.17
2023-04-27T17:49:42.441Z,2.90
2023-04-27T17:52:09.885Z,1.98
2023-04-27T17:54:37.549Z,2.80
2023-04-27T17:57:05.223Z,2.58
2023-04-27T17:59:32.370Z,2.30
2023-04-27T18:02:02.876Z,2.97
2023-04-27T18:04:30.193Z,1.95
2023-04-27T18:06:57.427Z,1.55
2023-04-27T18:09:26.355Z,2.05
2023-04-27T18:11:53.361Z,2.08
2023-04-27T18:14:20.704Z,1.88
2023-04-27T18:16:49.578Z,1.88
2023-04-27T18:19:17.124Z,1.67
2023-04-27T18:21:44.420Z,1.95
2023-04-27T18:24:11.698Z,2.30
2023-04-27T18:26:38.732Z,2.10
2023-04-27T18:29:05.728Z,2.10
2023-04-27T18:31:33.025Z,2.47
2023-04-27T18:34:00.224Z,1.92
2023-04-27T18:36:27.813Z,1.70
2023-04-27T18:38:55.642Z,2.25
2023-04-27T18:41:23.717Z,2.42
2023-04-27T18:43:50.722Z,2.00
2023-04-27T18:46:17.820Z,1.75
2023-04-27T18:48:45.573Z,1.83
2023-04-27T18:51:12.543Z,2.03
2023-04-27T18:53:39.518Z,2.08
2023-04-27T18:56:08.119Z,1.92
2023-04-27T18:58:36.538Z,2.05
2023-04-27T19:01:03.736Z,1.92
2023-04-27T19:03:31.358Z,1.92
2023-04-27T19:05:58.872Z,2.00
2023-04-27T19:08:26.390Z,2.40
2023-04-27T19:10:53.703Z,2.40
2023-04-27T19:13:21.084Z,2.05
2023-04-27T19:15:48.253Z,1.70
2023-04-27T19:18:15.389Z,1.83
2023-04-27T19:20:42.542Z,2.20
2023-04-27T19:23:12.426Z,2.00
2023-04-27T19:25:40.412Z,2.67
2023-04-27T19:28:08.033Z,2.20
2023-04-27T19:30:35.062Z,2.42
2023-04-27T19:33:02.540Z,1.75
2023-04-27T19:35:30.364Z,2.08
2023-04-27T19:37:57.488Z,1.92
2023-04-27T19:40:24.662Z,1.50
2023-04-27T19:42:52.049Z,1.85
2023-04-27T19:45:20.363Z,1.63
2023-04-27T19:47:48.739Z,2.10
2023-04-27T19:50:16.810Z,2.15
2023-04-27T19:52:44.190Z,1.73
2023-04-27T19:55:11.441Z,2.08
2023-04-27T19:57:38.418Z,2.22
2023-04-27T20:00:10.282Z,1.98
2023-04-27T20:02:40.763Z,1.77
2023-04-27T20:05:09.226Z,2.20
2023-04-27T20:07:37.474Z,2.25
2023-04-27T20:10:05.665Z,1.92
2023-04-27T20:12:51.602Z,2.75
2023-04-27T20:15:20.048Z,2.00
2023-04-27T20:17:47.231Z,2.60
2023-04-27T20:20:14.219Z,1.85
2023-04-27T20:22:41.544Z,2.28
2023-04-27T20:25:09.177Z,2.00
2023-04-27T20:27:36.466Z,2.30
2023-04-27T20:30:04.414Z,2.55
2023-04-27T20:32:31.868Z,2.95
2023-04-27T20:35:00.118Z,2.30
2023-04-27T20:37:28.609Z,3.15
2023-04-27T20:39:55.864Z,2.08
2023-04-27T20:42:22.851Z,1.95
2023-04-27T20:44:50.627Z,1.85
2023-04-27T20:47:18.022Z,2.40
2023-04-27T20:49:44.980Z,2.50
2023-04-27T20:52:12.436Z,2.22
2023-04-27T20:54:39.952Z,1.75
2023-04-27T20:57:13.749Z,2.42
2023-04-27T20:59:41.579Z,2.10
2023-04-27T21:02:09.021Z,2.17
2023-04-27T21:04:36.639Z,2.08
2023-04-27T21:07:04.112Z,2.20
2023-04-27T21:09:31.646Z,2.20
2023-04-27T21:11:59.009Z,1.98
2023-04-27T21:14:25.966Z,1.80
2023-04-27T21:16:53.157Z,1.83
2023-04-27T21:19:20.812Z,2.00
2023-04-27T21:21:47.832Z,1.58
2023-04-27T21:24:15.518Z,1.85
2023-04-27T21:26:42.668Z,1.70
2023-04-27T21:29:09.670Z,2.22
2023-04-27T21:31:37.422Z,2.00
2023-04-27T21:34:04.654Z,1.98
2023-04-27T21:36:33.164Z,1.98
2023-04-27T21:39:00.150Z,2.13
2023-04-27T21:41:27.549Z,2.03
2023-04-27T21:43:54.718Z,2.72
2023-04-27T21:46:24.050Z,2.40
2023-04-27T21:48:51.450Z,1.92
2023-04-27T21:51:19.102Z,2.55
2023-04-27T21:53:46.565Z,2.38
2023-04-27T21:56:13.891Z,2.35
2023-04-27T21:58:40.870Z,2.70
2023-04-27T22:01:07.909Z,2.08
2023-04-27T22:03:35.023Z,2.30
2023-04-27T22:06:02.296Z,2.33
2023-04-27T22:08:29.351Z,1.83
2023-04-27T22:10:56.425Z,1.48
2023-04-27T22:13:23.395Z,1.85
2023-04-27T22:15:51.122Z,1.70
2023-04-27T22:18:18.872Z,2.08
2023-04-27T22:20:46.247Z,2.25
2023-04-27T22:23:13.703Z,1.42
2023-04-27T22:25:42.885Z,1.70
2023-04-27T22:28:10.834Z,1.98
2023-04-27T22:30:38.941Z,1.73
2023-04-27T22:33:06.345Z,1.77
2023-04-27T22:35:34.284Z,1.63
2023-04-27T22:38:01.290Z,1.90
2023-04-27T22:40:28.893Z,1.70
2023-04-27T22:42:56.060Z,2.00
2023-04-27T22:45:23.798Z,2.00
2023-04-27T22:47:51.286Z,1.60
2023-04-27T22:50:18.769Z,1.88
2023-04-27T22:52:45.970Z,1.33
2023-04-27T22:55:13.402Z,1.90
2023-04-27T22:57:41.769Z,1.70
2023-04-27T23:00:11.828Z,1.55
2023-04-27T23:02:40.292Z,1.88
2023-04-27T23:05:08.207Z,1.65
2023-04-27T23:07:36.145Z,2.42
2023-04-27T23:10:03.789Z,2.33
2023-04-27T23:12:31.820Z,2.80
2023-04-27T23:14:59.271Z,3.00
2023-04-27T23:17:33.226Z,3.33
2023-04-27T23:20:01.724Z,2.70
2023-04-27T23:22:29.466Z,2.50
2023-04-27T23:24:56.979Z,2.67
2023-04-27T23:27:24.850Z,2.50
2023-04-27T23:29:52.700Z,2.97
2023-04-27T23:32:20.048Z,2.47
2023-04-27T23:34:47.573Z,2.72
2023-04-27T23:37:14.575Z,2.28
2023-04-27T23:39:41.784Z,2.38
2023-04-27T23:42:09.183Z,2.30
2023-04-27T23:44:36.541Z,2.00
2023-04-27T23:47:03.660Z,1.58
2023-04-27T23:49:31.002Z,1.85
2023-04-27T23:51:58.430Z,2.60
2023-04-27T23:54:26.110Z,1.70
2023-04-27T23:56:53.144Z,1.85
2023-04-27T23:59:20.612Z,1.55
